createdAt,value
2023-03-16T00:00:17.243Z,74.05
2023-03-16T00:01:17.244Z,74.05
2023-03-16T00:02:17.320Z,74.11
2023-03-16T00:03:17.280Z,74.02
2023-03-16T00:04:17.256Z,74.58
2023-03-16T00:05:17.254Z,74.71
2023-03-16T00:06:17.262Z,74.24
2023-03-16T00:07:17.263Z,74.34
2023-03-16T00:08:17.271Z,74.68
2023-03-16T00:09:17.275Z,74.90
2023-03-16T00:10:17.273Z,75.05
2023-03-16T00:11:17.278Z,74.68
2023-03-16T00:12:17.293Z,75.66
2023-03-16T00:13:17.281Z,75.38
2023-03-16T00:14:17.284Z,74.53
2023-03-16T00:15:17.297Z,74.53
2023-03-16T00:16:17.359Z,73.96
2023-03-16T00:17:17.292Z,73.96
2023-03-16T00:18:17.319Z,73.45
2023-03-16T00:19:17.301Z,73.64
2023-03-16T00:20:17.311Z,73.64
2023-03-16T00:21:17.319Z,72.26
2023-03-16T00:22:17.311Z,71.47
2023-03-16T00:23:17.310Z,71.50
2023-03-16T00:24:17.319Z,72.13
2023-03-16T00:25:17.329Z,71.94
2023-03-16T00:26:17.330Z,71.88
2023-03-16T00:27:17.386Z,72.17
2023-03-16T00:28:17.335Z,72.13
2023-03-16T00:29:17.325Z,72.32
2023-03-16T00:30:17.336Z,71.75
2023-03-16T00:31:17.359Z,71.09
2023-03-16T00:32:17.356Z,70.34
2023-03-16T00:33:17.333Z,70.62
2023-03-16T00:34:17.366Z,70.15
2023-03-16T00:35:17.338Z,70.81
2023-03-16T00:36:17.352Z,71.47
2023-03-16T00:37:17.395Z,72.22
2023-03-16T00:38:17.351Z,72.69
2023-03-16T00:39:17.348Z,72.88
2023-03-16T00:40:17.357Z,71.84
2023-03-16T00:41:17.356Z,71.37
2023-03-16T00:42:17.358Z,71.28
2023-03-16T00:43:17.359Z,71.31
2023-03-16T00:44:17.365Z,71.47
2023-03-16T00:45:17.374Z,71.12
2023-03-16T00:46:17.477Z,71.09
2023-03-16T00:47:17.370Z,70.94
2023-03-16T00:48:17.378Z,70.47
2023-03-16T00:49:17.382Z,70.56
2023-03-16T00:50:17.401Z,70.47
2023-03-16T00:51:17.383Z,70.15
2023-03-16T00:52:17.393Z,70.37
2023-03-16T00:53:17.387Z,70.62
2023-03-16T00:54:17.391Z,70.34
2023-03-16T00:55:17.393Z,69.67
2023-03-16T00:56:17.398Z,68.73
2023-03-16T00:57:17.411Z,68.44
2023-03-16T00:58:17.412Z,68.54
2023-03-16T00:59:17.402Z,68.48
2023-03-16T01:00:17.409Z,68.07
2023-03-16T01:01:17.452Z,68.16
2023-03-16T01:02:17.414Z,68.26
2023-03-16T01:03:17.487Z,67.97
2023-03-16T01:04:17.433Z,68.07
2023-03-16T01:05:17.421Z,69.49
2023-03-16T01:06:17.478Z,70.24
2023-03-16T01:07:17.424Z,71.00
2023-03-16T01:08:17.436Z,71.28
2023-03-16T01:09:17.445Z,71.00
2023-03-16T01:10:17.438Z,70.15
2023-03-16T01:11:17.505Z,69.49
2023-03-16T01:12:17.471Z,69.86
2023-03-16T01:13:17.446Z,69.86
2023-03-16T01:14:17.450Z,70.34
2023-03-16T01:15:17.450Z,71.28
2023-03-16T01:16:17.481Z,72.41
2023-03-16T01:17:17.489Z,71.75
2023-03-16T01:18:17.475Z,71.37
2023-03-16T01:19:17.462Z,69.77
2023-03-16T01:20:17.471Z,68.07
2023-03-16T01:21:17.477Z,67.41
2023-03-16T01:22:17.496Z,66.84
2023-03-16T01:23:17.475Z,66.56
2023-03-16T01:24:17.482Z,66.65
2023-03-16T01:25:17.484Z,66.47
2023-03-16T01:26:17.484Z,67.13
2023-03-16T01:27:17.486Z,67.03
2023-03-16T01:28:17.489Z,67.13
2023-03-16T01:29:17.490Z,67.88
2023-03-16T01:30:17.509Z,68.63
2023-03-16T01:31:17.617Z,68.16
2023-03-16T01:32:17.517Z,67.79
2023-03-16T01:33:17.502Z,67.22
2023-03-16T01:34:17.507Z,65.80
2023-03-16T01:35:17.505Z,65.80
2023-03-16T01:36:17.514Z,65.80
2023-03-16T01:37:17.515Z,65.71
2023-03-16T01:38:17.540Z,66.18
2023-03-16T01:39:17.518Z,66.09
2023-03-16T01:40:17.533Z,65.90
2023-03-16T01:41:17.534Z,65.52
2023-03-16T01:42:17.536Z,65.99
2023-03-16T01:43:17.528Z,65.33
2023-03-16T01:44:17.535Z,65.52
2023-03-16T01:45:17.533Z,65.23
2023-03-16T01:46:17.661Z,65.33
2023-03-16T01:47:17.538Z,64.67
2023-03-16T01:48:17.546Z,64.11
2023-03-16T01:49:17.544Z,64.20
2023-03-16T01:50:17.556Z,65.14
2023-03-16T01:51:17.555Z,65.33
2023-03-16T01:52:17.572Z,65.80
2023-03-16T01:53:17.562Z,66.09
2023-03-16T01:54:17.584Z,66.09
2023-03-16T01:55:17.564Z,66.28
2023-03-16T01:56:17.567Z,65.99
2023-03-16T01:57:17.572Z,65.80
2023-03-16T01:58:17.576Z,66.18
2023-03-16T01:59:17.571Z,65.61
2023-03-16T02:00:17.587Z,65.80
2023-03-16T02:01:17.722Z,66.18
2023-03-16T02:02:17.584Z,66.28
2023-03-16T02:03:17.587Z,66.18
2023-03-16T02:04:17.677Z,65.99
2023-03-16T02:05:17.594Z,65.90
2023-03-16T02:06:17.593Z,66.09
2023-03-16T02:07:17.601Z,66.31
2023-03-16T02:08:17.602Z,65.99
2023-03-16T02:09:17.607Z,65.84
2023-03-16T02:10:17.627Z,65.52
2023-03-16T02:11:17.613Z,64.89
2023-03-16T02:12:17.614Z,64.98
2023-03-16T02:13:17.619Z,65.23
2023-03-16T02:14:17.616Z,64.79
2023-03-16T02:15:17.641Z,64.95
2023-03-16T02:16:17.671Z,64.61
2023-03-16T02:17:17.642Z,64.32
2023-03-16T02:18:17.630Z,64.29
2023-03-16T02:19:17.633Z,64.39
2023-03-16T02:20:17.646Z,64.48
2023-03-16T02:21:17.642Z,64.48
2023-03-16T02:22:17.650Z,63.92
2023-03-16T02:23:17.648Z,63.35
2023-03-16T02:24:17.653Z,62.97
2023-03-16T02:25:17.653Z,63.45
2023-03-16T02:26:17.672Z,63.07
2023-03-16T02:27:17.669Z,63.92
2023-03-16T02:28:17.658Z,63.73
2023-03-16T02:29:17.663Z,62.97
2023-03-16T02:30:17.682Z,63.07
2023-03-16T02:31:17.765Z,63.07
2023-03-16T02:32:17.679Z,63.45
2023-03-16T02:33:17.699Z,63.35
2023-03-16T02:34:17.681Z,62.88
2023-03-16T02:35:17.681Z,62.88
2023-03-16T02:36:17.681Z,62.21
2023-03-16T02:37:17.691Z,61.84
2023-03-16T02:38:17.684Z,61.65
2023-03-16T02:39:17.712Z,62.02
2023-03-16T02:40:17.693Z,61.93
2023-03-16T02:41:17.710Z,62.21
2023-03-16T02:42:17.721Z,62.02
2023-03-16T02:43:17.707Z,61.84
2023-03-16T02:44:17.701Z,62.40
2023-03-16T02:45:17.707Z,61.55
2023-03-16T02:46:17.766Z,61.84
2023-03-16T02:47:17.712Z,61.74
2023-03-16T02:48:17.714Z,62.31
2023-03-16T02:49:17.726Z,61.93
2023-03-16T02:50:17.716Z,60.89
2023-03-16T02:51:17.726Z,60.14
2023-03-16T02:52:17.723Z,59.48
2023-03-16T02:53:17.735Z,59.95
2023-03-16T02:54:17.732Z,60.14
2023-03-16T02:55:17.735Z,61.65
2023-03-16T02:56:17.744Z,62.21
2023-03-16T02:57:17.745Z,62.59
2023-03-16T02:58:17.759Z,62.12
2023-03-16T02:59:17.747Z,60.89
2023-03-16T03:00:17.754Z,60.24
2023-03-16T03:01:17.751Z,59.67
2023-03-16T03:02:17.771Z,59.38
2023-03-16T03:03:17.852Z,59.00
2023-03-16T03:04:17.754Z,59.67
2023-03-16T03:05:17.764Z,60.42
2023-03-16T03:06:17.764Z,60.61
2023-03-16T03:07:17.773Z,60.71
2023-03-16T03:08:17.766Z,60.05
2023-03-16T03:09:17.775Z,60.33
2023-03-16T03:10:17.775Z,59.48
2023-03-16T03:11:17.783Z,59.00
2023-03-16T03:12:17.777Z,59.00
2023-03-16T03:13:17.794Z,59.10
2023-03-16T03:14:17.808Z,59.10
2023-03-16T03:15:17.790Z,58.44
2023-03-16T03:16:17.872Z,58.63
2023-03-16T03:17:17.793Z,58.53
2023-03-16T03:18:17.794Z,58.06
2023-03-16T03:19:17.799Z,57.78
2023-03-16T03:20:17.809Z,56.65
2023-03-16T03:21:17.805Z,56.36
2023-03-16T03:22:17.803Z,55.13
2023-03-16T03:23:17.817Z,54.57
2023-03-16T03:24:17.814Z,53.81
2023-03-16T03:25:17.819Z,52.11
2023-03-16T03:26:17.814Z,51.36
2023-03-16T03:27:17.819Z,51.64
2023-03-16T03:28:17.830Z,52.59
2023-03-16T03:29:17.829Z,54.00
2023-03-16T03:30:17.853Z,56.08
2023-03-16T03:31:17.888Z,57.78
2023-03-16T03:32:17.832Z,57.87
2023-03-16T03:33:17.838Z,57.31
2023-03-16T03:34:17.835Z,55.13
2023-03-16T03:35:17.865Z,53.91
2023-03-16T03:36:17.854Z,52.49
2023-03-16T03:37:17.845Z,51.26
2023-03-16T03:38:17.882Z,49.85
2023-03-16T03:39:17.851Z,48.90
2023-03-16T03:40:17.858Z,49.38
2023-03-16T03:41:17.859Z,49.57
2023-03-16T03:42:17.861Z,50.13
2023-03-16T03:43:17.868Z,49.49
2023-03-16T03:44:17.876Z,49.30
2023-03-16T03:45:17.871Z,49.49
2023-03-16T03:46:18.063Z,49.87
2023-03-16T03:47:17.875Z,49.66
2023-03-16T03:48:17.881Z,49.78
2023-03-16T03:49:17.882Z,50.89
2023-03-16T03:50:17.888Z,51.83
2023-03-16T03:51:17.885Z,53.06
2023-03-16T03:52:17.888Z,53.37
2023-03-16T03:53:17.893Z,53.25
2023-03-16T03:54:17.892Z,52.40
2023-03-16T03:55:17.899Z,52.30
2023-03-16T03:56:17.898Z,52.11
2023-03-16T03:57:19.103Z,51.45
2023-03-16T03:58:17.907Z,51.45
2023-03-16T03:59:17.907Z,51.64
2023-03-16T04:00:17.903Z,51.54
2023-03-16T04:01:17.910Z,51.54
2023-03-16T04:02:18.023Z,50.23
2023-03-16T04:03:17.959Z,49.97
2023-03-16T04:04:17.914Z,50.53
2023-03-16T04:05:17.936Z,51.26
2023-03-16T04:06:17.918Z,52.59
2023-03-16T04:07:17.927Z,53.37
2023-03-16T04:08:17.927Z,53.15
2023-03-16T04:09:17.936Z,52.89
2023-03-16T04:10:17.936Z,52.59
2023-03-16T04:11:17.933Z,51.64
2023-03-16T04:12:17.938Z,50.44
2023-03-16T04:13:17.943Z,49.97
2023-03-16T04:14:17.945Z,49.30
2023-03-16T04:15:17.947Z,49.40
2023-03-16T04:16:17.995Z,50.16
2023-03-16T04:17:17.951Z,50.44
2023-03-16T04:18:17.974Z,49.97
2023-03-16T04:19:17.968Z,50.53
2023-03-16T04:20:17.957Z,51.76
2023-03-16T04:21:17.964Z,52.14
2023-03-16T04:22:17.961Z,52.70
2023-03-16T04:23:17.971Z,54.03
2023-03-16T04:24:17.982Z,53.84
2023-03-16T04:25:17.977Z,54.03
2023-03-16T04:26:17.978Z,52.61
2023-03-16T04:27:17.982Z,51.57
2023-03-16T04:28:18.142Z,50.82
2023-03-16T04:29:18.013Z,50.53
2023-03-16T04:30:17.982Z,51.01
2023-03-16T04:31:18.034Z,49.87
2023-03-16T04:32:17.999Z,49.59
2023-03-16T04:33:17.997Z,49.68
2023-03-16T04:34:18.018Z,49.59
2023-03-16T04:35:18.001Z,48.55
2023-03-16T04:36:18.004Z,48.18
2023-03-16T04:37:18.009Z,47.70
2023-03-16T04:38:18.005Z,47.61
2023-03-16T04:39:18.016Z,46.94
2023-03-16T04:40:18.020Z,45.81
2023-03-16T04:41:18.022Z,45.15
2023-03-16T04:42:18.017Z,44.68
2023-03-16T04:43:18.028Z,44.30
2023-03-16T04:44:18.022Z,44.30
2023-03-16T04:45:18.029Z,43.92
2023-03-16T04:46:18.094Z,43.73
2023-03-16T04:47:18.034Z,42.79
2023-03-16T04:48:18.037Z,42.97
2023-03-16T04:49:18.043Z,41.85
2023-03-16T04:50:18.067Z,41.56
2023-03-16T04:51:18.050Z,42.22
2023-03-16T04:52:18.048Z,42.69
2023-03-16T04:53:18.075Z,43.83
2023-03-16T04:54:18.049Z,44.02
2023-03-16T04:55:18.057Z,42.88
2023-03-16T04:56:18.063Z,42.79
2023-03-16T04:57:18.062Z,43.73
2023-03-16T04:58:18.079Z,44.39
2023-03-16T04:59:18.067Z,45.34
2023-03-16T05:00:18.074Z,46.37
2023-03-16T05:01:18.118Z,46.85
2023-03-16T05:02:18.077Z,46.75
2023-03-16T05:03:18.083Z,46.75
2023-03-16T05:04:19.749Z,47.13
2023-03-16T05:05:18.102Z,47.89
2023-03-16T05:06:18.106Z,48.18
2023-03-16T05:07:18.092Z,48.08
2023-03-16T05:08:18.091Z,48.55
2023-03-16T05:09:18.097Z,49.02
2023-03-16T05:10:18.097Z,49.30
2023-03-16T05:11:18.114Z,49.49
2023-03-16T05:12:18.106Z,49.40
2023-03-16T05:13:18.124Z,49.02
2023-03-16T05:14:18.109Z,48.83
2023-03-16T05:15:18.118Z,48.83
2023-03-16T05:16:18.186Z,48.46
2023-03-16T05:17:18.121Z,48.08
2023-03-16T05:18:18.124Z,48.55
2023-03-16T05:19:18.126Z,48.55
2023-03-16T05:20:18.143Z,49.11
2023-03-16T05:21:18.136Z,48.46
2023-03-16T05:22:18.152Z,47.51
2023-03-16T05:23:18.139Z,46.66
2023-03-16T05:24:18.156Z,46.19
2023-03-16T05:25:18.148Z,46.85
2023-03-16T05:26:18.146Z,47.51
2023-03-16T05:27:18.152Z,48.36
2023-03-16T05:28:18.153Z,48.36
2023-03-16T05:29:18.157Z,48.83
2023-03-16T05:30:18.160Z,49.30
2023-03-16T05:31:18.179Z,49.40
2023-03-16T05:32:18.169Z,49.30
2023-03-16T05:33:18.172Z,49.30
2023-03-16T05:34:18.167Z,49.02
2023-03-16T05:35:18.175Z,48.74
2023-03-16T05:36:18.181Z,48.65
2023-03-16T05:37:18.182Z,48.55
2023-03-16T05:38:18.202Z,47.89
2023-03-16T05:39:18.193Z,48.55
2023-03-16T05:40:18.244Z,49.30
2023-03-16T05:41:18.197Z,49.49
2023-03-16T05:42:18.193Z,49.40
2023-03-16T05:43:18.200Z,48.93
2023-03-16T05:44:18.202Z,48.55
2023-03-16T05:45:18.210Z,48.08
2023-03-16T05:46:20.647Z,47.89
2023-03-16T05:47:18.222Z,47.99
2023-03-16T05:48:18.212Z,48.65
2023-03-16T05:49:18.219Z,48.36
2023-03-16T05:50:18.238Z,48.55
2023-03-16T05:51:18.234Z,49.11
2023-03-16T05:52:18.230Z,49.21
2023-03-16T05:53:18.231Z,48.46
2023-03-16T05:54:18.254Z,47.99
2023-03-16T05:55:18.233Z,48.65
2023-03-16T05:56:18.234Z,49.30
2023-03-16T05:57:18.242Z,48.93
2023-03-16T05:58:18.240Z,49.40
2023-03-16T05:59:18.258Z,49.40
2023-03-16T06:00:18.274Z,49.68
2023-03-16T06:01:18.257Z,50.06
2023-03-16T06:02:18.256Z,49.40
2023-03-16T06:03:18.348Z,49.21
2023-03-16T06:04:18.317Z,48.36
2023-03-16T06:05:18.268Z,48.36
2023-03-16T06:06:18.268Z,48.08
2023-03-16T06:07:18.271Z,47.61
2023-03-16T06:08:18.270Z,48.08
2023-03-16T06:09:18.277Z,47.61
2023-03-16T06:10:18.335Z,46.75
2023-03-16T06:11:18.297Z,47.42
2023-03-16T06:12:18.284Z,47.89
2023-03-16T06:13:18.290Z,48.36
2023-03-16T06:14:18.304Z,47.99
2023-03-16T06:15:18.296Z,47.42
2023-03-16T06:16:18.366Z,46.85
2023-03-16T06:17:18.314Z,47.04
2023-03-16T06:18:18.301Z,46.56
2023-03-16T06:19:18.306Z,45.43
2023-03-16T06:20:18.309Z,45.53
2023-03-16T06:21:18.313Z,45.72
2023-03-16T06:22:18.429Z,46.66
2023-03-16T06:23:18.319Z,47.70
2023-03-16T06:24:18.324Z,48.27
2023-03-16T06:25:18.324Z,48.65
2023-03-16T06:26:18.365Z,47.89
2023-03-16T06:27:18.329Z,47.34
2023-03-16T06:28:18.341Z,47.61
2023-03-16T06:29:18.342Z,46.85
2023-03-16T06:30:18.351Z,46.21
2023-03-16T06:31:18.371Z,45.55
2023-03-16T06:32:18.349Z,45.64
2023-03-16T06:33:18.351Z,45.17
2023-03-16T06:34:18.367Z,45.55
2023-03-16T06:35:18.360Z,46.69
2023-03-16T06:36:18.367Z,47.44
2023-03-16T06:37:18.365Z,47.44
2023-03-16T06:38:18.370Z,46.88
2023-03-16T06:39:18.370Z,46.59
2023-03-16T06:40:18.377Z,46.88
2023-03-16T06:41:18.379Z,48.20
2023-03-16T06:42:18.412Z,48.57
2023-03-16T06:43:18.393Z,50.37
2023-03-16T06:44:18.390Z,50.94
2023-03-16T06:45:18.392Z,51.13
2023-03-16T06:46:18.475Z,51.60
2023-03-16T06:47:18.398Z,51.22
2023-03-16T06:48:18.402Z,50.75
2023-03-16T06:49:18.404Z,50.18
2023-03-16T06:50:18.408Z,50.18
2023-03-16T06:51:18.422Z,48.48
2023-03-16T06:52:18.432Z,47.82
2023-03-16T06:53:18.421Z,46.88
2023-03-16T06:54:18.423Z,45.74
2023-03-16T06:55:18.425Z,45.36
2023-03-16T06:56:18.432Z,45.36
2023-03-16T06:57:18.436Z,45.64
2023-03-16T06:58:18.549Z,45.55
2023-03-16T06:59:18.439Z,45.36
2023-03-16T07:00:18.450Z,45.74
2023-03-16T07:01:18.561Z,46.59
2023-03-16T07:02:18.449Z,47.53
2023-03-16T07:03:18.451Z,48.48
2023-03-16T07:04:18.653Z,49.62
2023-03-16T07:05:18.456Z,49.24
2023-03-16T07:06:18.471Z,47.72
2023-03-16T07:07:18.475Z,46.50
2023-03-16T07:08:18.473Z,44.89
2023-03-16T07:09:18.469Z,44.42
2023-03-16T07:10:18.488Z,46.78
2023-03-16T07:11:18.474Z,48.39
2023-03-16T07:12:18.492Z,50.46
2023-03-16T07:13:18.485Z,51.13
2023-03-16T07:14:18.513Z,50.65
2023-03-16T07:15:18.489Z,50.09
2023-03-16T07:16:18.553Z,50.84
2023-03-16T07:17:18.500Z,51.69
2023-03-16T07:18:18.503Z,51.91
2023-03-16T07:19:18.504Z,52.29
2023-03-16T07:20:18.509Z,52.57
2023-03-16T07:21:18.511Z,52.57
2023-03-16T07:22:18.525Z,52.57
2023-03-16T07:23:18.541Z,52.95
2023-03-16T07:24:18.535Z,52.67
2023-03-16T07:25:18.533Z,52.76
2023-03-16T07:26:18.536Z,52.48
2023-03-16T07:27:18.534Z,53.05
2023-03-16T07:28:18.540Z,52.38
2023-03-16T07:29:18.556Z,51.06
2023-03-16T07:30:18.570Z,48.50
2023-03-16T07:31:18.612Z,46.80
2023-03-16T07:32:18.556Z,45.86
2023-03-16T07:33:18.554Z,46.36
2023-03-16T07:34:18.571Z,47.37
2023-03-16T07:35:18.584Z,48.53
2023-03-16T07:36:18.620Z,49.66
2023-03-16T07:37:25.008Z,49.85
2023-03-16T07:38:18.589Z,49.48
2023-03-16T07:39:18.585Z,48.44
2023-03-16T07:40:18.588Z,48.63
2023-03-16T07:41:18.593Z,49.01
2023-03-16T07:42:18.599Z,49.66
2023-03-16T07:43:18.600Z,48.82
2023-03-16T07:44:18.610Z,45.98
2023-03-16T07:45:18.611Z,45.34
2023-03-16T07:46:18.735Z,44.20
2023-03-16T07:47:18.617Z,46.37
2023-03-16T07:48:18.625Z,44.01
2023-03-16T07:49:18.626Z,41.55
2023-03-16T07:50:18.632Z,38.43
2023-03-16T07:51:18.643Z,37.48
2023-03-16T07:52:18.668Z,39.28
2023-03-16T07:53:18.661Z,41.55
2023-03-16T07:54:18.653Z,42.78
2023-03-16T07:55:18.658Z,42.78
2023-03-16T07:56:18.661Z,42.11
2023-03-16T07:57:18.661Z,42.21
2023-03-16T07:58:18.683Z,42.30
2023-03-16T07:59:20.786Z,42.23
2023-03-16T08:00:18.681Z,40.44
2023-03-16T08:01:18.682Z,38.45
2023-03-16T08:02:18.781Z,37.69
2023-03-16T08:03:18.746Z,36.83
2023-03-16T08:04:18.699Z,35.32
2023-03-16T08:05:18.706Z,33.90
2023-03-16T08:06:18.725Z,32.20
2023-03-16T08:07:18.713Z,32.10
2023-03-16T08:08:18.729Z,32.10
2023-03-16T08:09:18.721Z,29.54
2023-03-16T08:10:18.732Z,27.46
2023-03-16T08:11:18.764Z,27.08
2023-03-16T08:12:18.750Z,28.42
2023-03-16T08:13:18.762Z,30.32
2023-03-16T08:14:18.752Z,30.69
2023-03-16T08:15:18.758Z,30.32
2023-03-16T08:16:21.890Z,30.03
2023-03-16T08:17:18.771Z,29.27
2023-03-16T08:18:18.800Z,28.80
2023-03-16T08:19:18.780Z,29.27
2023-03-16T08:20:18.789Z,30.22
2023-03-16T08:21:18.790Z,30.13
2023-03-16T08:22:18.808Z,30.88
2023-03-16T08:23:18.804Z,31.17
2023-03-16T08:24:18.824Z,31.07
2023-03-16T08:25:18.858Z,30.98
2023-03-16T08:26:18.826Z,30.52
2023-03-16T08:27:18.846Z,30.24
2023-03-16T08:28:18.839Z,29.86
2023-03-16T08:29:18.838Z,29.29
2023-03-16T08:30:18.856Z,29.95
2023-03-16T08:31:18.924Z,32.04
2023-03-16T08:32:18.866Z,36.11
2023-03-16T08:33:20.225Z,38.29
2023-03-16T08:34:18.900Z,38.58
2023-03-16T08:35:18.882Z,39.05
2023-03-16T08:36:18.883Z,38.86
2023-03-16T08:37:18.896Z,39.15
2023-03-16T08:38:18.903Z,36.40
2023-03-16T08:39:18.930Z,35.36
2023-03-16T08:40:18.922Z,35.74
2023-03-16T08:41:18.914Z,35.36
2023-03-16T08:42:18.923Z,35.64
2023-03-16T08:43:18.935Z,35.45
2023-03-16T08:44:18.938Z,34.98
2023-03-16T08:45:18.940Z,35.62
2023-03-16T08:46:18.987Z,36.21
2023-03-16T08:47:18.953Z,35.93
2023-03-16T08:48:18.958Z,36.02
2023-03-16T08:49:18.963Z,34.88
2023-03-16T08:50:18.994Z,32.70
2023-03-16T08:51:18.972Z,30.33
2023-03-16T08:52:18.994Z,29.67
2023-03-16T08:53:18.987Z,29.86
2023-03-16T08:54:18.997Z,29.95
2023-03-16T08:55:19.008Z,30.80
2023-03-16T08:56:19.010Z,32.23
2023-03-16T08:57:19.014Z,33.08
2023-03-16T08:58:19.022Z,34.50
2023-03-16T08:59:29.130Z,34.69
2023-03-16T09:00:19.066Z,34.98
2023-03-16T09:01:19.247Z,34.69
2023-03-16T09:02:19.048Z,34.42
2023-03-16T09:03:19.052Z,34.14
2023-03-16T09:04:19.131Z,33.67
2023-03-16T09:05:19.070Z,33.00
2023-03-16T09:06:19.119Z,33.67
2023-03-16T09:07:19.087Z,33.57
2023-03-16T09:08:19.092Z,32.81
2023-03-16T09:09:19.095Z,32.06
2023-03-16T09:10:19.109Z,30.63
2023-03-16T09:11:19.130Z,29.87
2023-03-16T09:12:19.122Z,30.27
2023-03-16T09:13:19.124Z,29.32
2023-03-16T09:14:19.131Z,28.85
2023-03-16T09:15:19.139Z,27.61
2023-03-16T09:16:19.278Z,26.38
2023-03-16T09:17:19.154Z,25.14
2023-03-16T09:18:19.163Z,24.29
2023-03-16T09:19:19.167Z,23.63
2023-03-16T09:20:26.340Z,22.77
2023-03-16T09:21:19.184Z,21.63
2023-03-16T09:22:19.245Z,20.78
2023-03-16T09:23:19.203Z,20.69
2023-03-16T09:24:19.229Z,21.64
2023-03-16T09:25:19.215Z,21.26
2023-03-16T09:26:19.225Z,20.79
2023-03-16T09:27:19.310Z,20.31
2023-03-16T09:28:21.682Z,20.41
2023-03-16T09:29:19.257Z,22.12
2023-03-16T09:30:19.258Z,24.21
2023-03-16T09:31:19.281Z,23.55
2023-03-16T09:32:19.276Z,21.94
2023-03-16T09:33:19.282Z,19.85
2023-03-16T09:34:19.309Z,18.52
2023-03-16T09:35:19.312Z,17.57
2023-03-16T09:36:19.434Z,16.81
2023-03-16T09:37:19.314Z,16.05
2023-03-16T09:38:19.479Z,15.58
2023-03-16T09:39:19.329Z,18.05
2023-03-16T09:40:19.340Z,21.57
2023-03-16T09:41:19.346Z,24.80
2023-03-16T09:42:19.357Z,26.04
2023-03-16T09:43:19.365Z,26.61
2023-03-16T09:44:19.376Z,27.16
2023-03-16T09:45:19.383Z,29.06
2023-03-16T09:46:19.437Z,28.30
2023-03-16T09:47:19.405Z,28.78
2023-03-16T09:48:19.416Z,32.20
2023-03-16T09:49:19.461Z,32.29
2023-03-16T09:50:19.466Z,31.25
2023-03-16T09:51:19.502Z,29.25
2023-03-16T09:52:19.458Z,30.60
2023-03-16T09:53:19.457Z,33.73
2023-03-16T09:54:19.506Z,33.83
2023-03-16T09:55:19.489Z,27.86
2023-03-16T09:56:19.488Z,27.00
2023-03-16T09:57:19.499Z,24.35
2023-03-16T09:58:19.520Z,22.35
2023-03-16T09:59:19.514Z,20.73
2023-03-16T10:00:19.534Z,18.84
2023-03-16T10:01:19.606Z,18.37
2023-03-16T10:02:19.548Z,17.99
2023-03-16T10:03:19.550Z,18.28
2023-03-16T10:04:19.705Z,18.01
2023-03-16T10:05:19.585Z,18.86
2023-03-16T10:06:19.593Z,27.72
2023-03-16T10:07:19.605Z,33.70
2023-03-16T10:08:19.605Z,34.09
2023-03-16T10:09:19.644Z,36.26
2023-03-16T10:10:19.644Z,33.90
2023-03-16T10:11:19.639Z,38.64
2023-03-16T10:12:19.662Z,36.93
2023-03-16T10:13:19.657Z,36.89
2023-03-16T10:14:19.678Z,39.48
2023-03-16T10:15:19.742Z,44.42
2023-03-16T10:16:19.710Z,46.63
2023-03-16T10:17:19.701Z,45.30
2023-03-16T10:18:19.714Z,43.68
2023-03-16T10:19:19.737Z,43.23
2023-03-16T10:20:19.740Z,44.82
2023-03-16T10:21:19.742Z,47.49
2023-03-16T10:22:19.766Z,48.71
2023-03-16T10:23:19.771Z,47.66
2023-03-16T10:24:19.782Z,47.75
2023-03-16T10:25:19.790Z,49.11
2023-03-16T10:26:19.835Z,48.16
2023-03-16T10:27:19.810Z,44.75
2023-03-16T10:28:19.824Z,41.33
2023-03-16T10:29:19.834Z,41.82
2023-03-16T10:30:19.955Z,42.70
2023-03-16T10:31:19.954Z,42.80
2023-03-16T10:32:19.878Z,43.46
2023-03-16T10:33:19.895Z,42.87
2023-03-16T10:34:19.906Z,46.15
2023-03-16T10:35:19.922Z,48.08
2023-03-16T10:36:19.976Z,44.46
2023-03-16T10:37:19.930Z,44.18
2023-03-16T10:38:19.940Z,44.96
2023-03-16T10:39:19.956Z,43.54
2023-03-16T10:40:19.976Z,43.18
2023-03-16T10:41:19.976Z,42.41
2023-03-16T10:42:20.033Z,42.01
2023-03-16T10:43:20.008Z,44.27
2023-03-16T10:44:20.025Z,45.61
2023-03-16T10:45:20.025Z,47.02
2023-03-16T10:46:20.158Z,47.52
2023-03-16T10:47:20.118Z,48.25
2023-03-16T10:48:20.090Z,48.35
2023-03-16T10:49:20.088Z,48.08
2023-03-16T10:50:20.149Z,46.56
2023-03-16T10:51:20.109Z,48.18
2023-03-16T10:52:20.112Z,48.78
2023-03-16T10:53:20.150Z,47.85
2023-03-16T10:54:20.144Z,47.37
2023-03-16T10:55:20.161Z,44.56
2023-03-16T10:56:20.173Z,44.94
2023-03-16T10:57:20.187Z,43.51
2023-03-16T10:58:20.212Z,43.13
2023-03-16T10:59:20.212Z,43.40
2023-03-16T11:00:20.231Z,43.68
2023-03-16T11:01:20.238Z,45.51
2023-03-16T11:02:20.249Z,46.84
2023-03-16T11:03:20.267Z,48.11
2023-03-16T11:04:20.300Z,49.08
2023-03-16T11:05:20.288Z,47.66
2023-03-16T11:06:20.302Z,44.59
2023-03-16T11:07:20.314Z,44.87
2023-03-16T11:08:20.333Z,45.56
2023-03-16T11:09:20.384Z,46.13
2023-03-16T11:10:20.358Z,48.42
2023-03-16T11:11:20.378Z,49.06
2023-03-16T11:12:20.400Z,47.34
2023-03-16T11:13:20.400Z,47.06
2023-03-16T11:14:20.434Z,45.70
2023-03-16T11:15:26.339Z,46.47
2023-03-16T11:16:20.503Z,47.32
2023-03-16T11:17:20.652Z,49.32
2023-03-16T11:18:20.458Z,50.35
2023-03-16T11:19:20.482Z,48.75
2023-03-16T11:20:20.486Z,53.04
2023-03-16T11:21:20.507Z,50.11
2023-03-16T11:22:20.531Z,49.54
2023-03-16T11:23:20.531Z,49.66
2023-03-16T11:24:20.547Z,49.76
2023-03-16T11:25:20.557Z,47.92
2023-03-16T11:26:20.569Z,49.73
2023-03-16T11:27:20.594Z,51.54
2023-03-16T11:28:20.594Z,48.94
2023-03-16T11:29:20.611Z,49.87
2023-03-16T11:30:20.703Z,50.51
2023-03-16T11:31:20.762Z,50.73
2023-03-16T11:32:20.799Z,52.82
2023-03-16T11:33:20.672Z,52.82
2023-03-16T11:34:20.677Z,55.49
2023-03-16T11:35:20.707Z,54.15
2023-03-16T11:36:20.740Z,54.47
2023-03-16T11:37:20.723Z,55.13
2023-03-16T11:38:20.732Z,53.32
2023-03-16T11:39:20.762Z,51.32
2023-03-16T11:40:20.757Z,51.39
2023-03-16T11:41:20.785Z,52.44
2023-03-16T11:42:20.784Z,55.01
2023-03-16T11:43:20.805Z,54.63
2023-03-16T11:44:20.813Z,52.32
2023-03-16T11:45:20.834Z,52.63
2023-03-16T11:46:21.012Z,53.67
2023-03-16T11:47:20.857Z,53.20
2023-03-16T11:48:20.867Z,52.44
2023-03-16T11:49:20.888Z,53.80
2023-03-16T11:50:20.892Z,55.04
2023-03-16T11:51:20.914Z,55.73
2023-03-16T11:52:20.918Z,53.89
2023-03-16T11:53:20.933Z,52.30
2023-03-16T11:54:20.941Z,52.40
2023-03-16T11:55:20.960Z,50.87
2023-03-16T11:56:20.979Z,50.68
2023-03-16T11:57:20.987Z,52.94
2023-03-16T11:58:20.996Z,55.07
2023-03-16T11:59:21.011Z,55.73
2023-03-16T12:00:21.025Z,54.74
2023-03-16T12:01:21.227Z,52.16
2023-03-16T12:02:21.151Z,50.73
2023-03-16T12:03:21.091Z,50.61
2023-03-16T12:04:21.140Z,52.04
2023-03-16T12:05:21.093Z,50.87
2023-03-16T12:06:23.358Z,52.75
2023-03-16T12:07:21.117Z,51.61
2023-03-16T12:08:21.127Z,52.28
2023-03-16T12:09:21.178Z,50.94
2023-03-16T12:10:21.153Z,50.27
2023-03-16T12:11:21.171Z,49.06
2023-03-16T12:12:21.182Z,47.52
2023-03-16T12:13:21.213Z,47.30
2023-03-16T12:14:21.217Z,46.61
2023-03-16T12:15:21.236Z,46.56
2023-03-16T12:16:21.337Z,45.23
2023-03-16T12:17:21.252Z,44.73
2023-03-16T12:18:21.321Z,45.89
2023-03-16T12:19:21.284Z,48.11
2023-03-16T12:20:21.292Z,47.34
2023-03-16T12:21:21.313Z,46.11
2023-03-16T12:22:21.319Z,44.66
2023-03-16T12:23:21.335Z,43.42
2023-03-16T12:24:21.356Z,46.54
2023-03-16T12:25:21.361Z,43.87
2023-03-16T12:26:21.385Z,44.92
2023-03-16T12:27:21.396Z,44.73
2023-03-16T12:28:21.449Z,42.73
2023-03-16T12:29:21.419Z,44.26
2023-03-16T12:30:21.431Z,41.71
2023-03-16T12:31:21.472Z,43.32
2023-03-16T12:32:21.468Z,44.80
2023-03-16T12:33:21.486Z,43.73
2023-03-16T12:34:21.586Z,40.39
2023-03-16T12:35:21.512Z,37.71
2023-03-16T12:36:21.511Z,38.18
2023-03-16T12:37:21.529Z,40.70
2023-03-16T12:38:21.543Z,38.96
2023-03-16T12:39:21.561Z,38.49
2023-03-16T12:40:21.569Z,37.08
2023-03-16T12:41:21.586Z,38.53
2023-03-16T12:42:21.593Z,37.17
2023-03-16T12:43:21.614Z,35.89
2023-03-16T12:44:21.647Z,37.99
2023-03-16T12:45:21.653Z,41.63
2023-03-16T12:46:21.701Z,43.39
2023-03-16T12:47:21.666Z,44.37
2023-03-16T12:48:21.681Z,43.33
2023-03-16T12:49:21.704Z,40.09
2023-03-16T12:50:21.744Z,38.26
2023-03-16T12:51:21.722Z,37.68
2023-03-16T12:52:21.751Z,39.88